createdAt,value
2017-05-05T00:02:18.032Z,99.90
2017-05-05T00:04:46.355Z,99.90
2017-05-05T00:07:14.637Z,99.90
2017-05-05T00:09:42.927Z,99.90
2017-05-05T00:12:12.002Z,99.90
2017-05-05T00:14:40.291Z,99.90
2017-05-05T00:17:08.580Z,99.90
2017-05-05T00:19:37.654Z,99.90
2017-05-05T00:22:05.939Z,99.90
2017-05-05T00:24:34.226Z,99.90
2017-05-05T00:27:03.318Z,99.90
2017-05-05T00:29:32.359Z,99.90
2017-05-05T00:32:00.894Z,99.90
2017-05-05T00:34:29.951Z,99.90
2017-05-05T00:36:58.240Z,99.90
2017-05-05T00:39:26.523Z,99.90
2017-05-05T00:41:54.839Z,99.90
2017-05-05T00:44:23.131Z,99.90
2017-05-05T00:46:51.422Z,99.90
2017-05-05T00:49:19.742Z,99.90
2017-05-05T00:51:48.030Z,99.90
2017-05-05T00:54:17.054Z,99.90
2017-05-05T00:56:45.377Z,99.90
2017-05-05T00:59:13.668Z,99.90
2017-05-05T01:01:41.951Z,99.90
2017-05-05T01:04:10.285Z,99.90
2017-05-05T01:06:38.570Z,99.90
2017-05-05T01:09:06.855Z,99.90
2017-05-05T01:11:35.163Z,99.90
2017-05-05T01:14:03.455Z,99.90
2017-05-05T01:16:32.486Z,99.90
2017-05-05T01:19:00.807Z,99.90
2017-05-05T01:21:29.095Z,99.90
2017-05-05T01:23:58.131Z,99.90
2017-05-05T01:26:26.460Z,99.90
2017-05-05T01:28:54.751Z,99.90
2017-05-05T01:31:23.774Z,99.90
2017-05-05T01:33:52.091Z,99.90
2017-05-05T01:36:20.388Z,99.90
2017-05-05T01:38:48.683Z,99.90
2017-05-05T01:41:17.754Z,99.90
2017-05-05T01:43:46.043Z,99.90
2017-05-05T01:46:15.076Z,99.90
2017-05-05T01:48:43.403Z,99.90
2017-05-05T01:51:11.699Z,99.90
2017-05-05T01:53:40.726Z,99.90
2017-05-05T01:56:09.052Z,99.90
2017-05-05T01:58:37.355Z,99.90
2017-05-05T02:01:06.384Z,99.90
2017-05-05T02:03:34.706Z,99.90
2017-05-05T02:06:02.995Z,99.90
2017-05-05T02:08:32.032Z,99.90
2017-05-05T02:11:00.355Z,99.90
2017-05-05T02:13:28.643Z,99.90
2017-05-05T02:15:57.675Z,99.90
2017-05-05T02:18:26.004Z,99.90
2017-05-05T02:20:54.294Z,99.90
2017-05-05T02:23:23.324Z,99.90
2017-05-05T02:25:51.643Z,99.90
2017-05-05T02:28:19.935Z,99.90
2017-05-05T02:30:48.215Z,99.90
2017-05-05T02:33:16.550Z,99.90
2017-05-05T02:35:44.839Z,99.90
2017-05-05T02:38:13.127Z,99.90
2017-05-05T02:40:41.455Z,99.90
2017-05-05T02:43:09.749Z,99.90
2017-05-05T02:45:38.043Z,99.90
2017-05-05T02:48:06.363Z,99.90
2017-05-05T02:50:34.651Z,99.90
2017-05-05T02:53:03.684Z,99.90
2017-05-05T02:55:32.024Z,99.90
2017-05-05T02:58:01.055Z,99.90
2017-05-05T03:00:29.344Z,99.90
2017-05-05T03:02:57.684Z,99.90
2017-05-05T03:05:25.979Z,99.90
2017-05-05T03:07:54.272Z,99.90
2017-05-05T03:10:22.592Z,99.90
2017-05-05T03:12:51.621Z,99.90
2017-05-05T03:15:19.916Z,99.90
2017-05-05T03:17:48.241Z,99.90
2017-05-05T03:20:17.268Z,99.90
2017-05-05T03:22:45.562Z,99.90
2017-05-05T03:25:13.883Z,99.90
2017-05-05T03:27:42.169Z,99.90
2017-05-05T03:30:11.203Z,99.90
2017-05-05T03:32:39.547Z,99.90
2017-05-05T03:35:08.575Z,99.90
2017-05-05T03:37:36.868Z,99.90
2017-05-05T03:40:05.187Z,99.90
2017-05-05T03:42:33.472Z,99.90
2017-05-05T03:45:02.503Z,99.90
2017-05-05T03:47:30.822Z,99.90
2017-05-05T03:49:59.103Z,99.90
2017-05-05T03:52:27.399Z,99.90
2017-05-05T03:54:56.466Z,99.90
2017-05-05T03:57:24.759Z,99.90
2017-05-05T03:59:53.046Z,99.90
2017-05-05T04:02:22.108Z,99.90
2017-05-05T04:04:50.395Z,99.90
2017-05-05T04:07:18.680Z,99.90
2017-05-05T04:09:46.998Z,99.90
2017-05-05T04:12:15.286Z,99.90
2017-05-05T04:14:43.571Z,99.90
2017-05-05T04:17:11.891Z,99.90
2017-05-05T04:19:40.183Z,99.90
2017-05-05T04:22:09.211Z,99.90
2017-05-05T04:24:37.547Z,99.90
2017-05-05T04:27:05.838Z,99.90
2017-05-05T04:29:34.871Z,99.90
2017-05-05T04:32:03.183Z,99.90
2017-05-05T04:34:31.475Z,99.90
2017-05-05T04:36:59.766Z,99.90
2017-05-05T04:39:28.831Z,99.90
2017-05-05T04:41:57.124Z,99.90
2017-05-05T04:44:25.423Z,99.90
2017-05-05T04:46:54.482Z,99.90
2017-05-05T04:49:22.776Z,99.90
2017-05-05T04:51:51.062Z,99.90
2017-05-05T04:54:20.126Z,99.90
2017-05-05T04:56:48.416Z,99.90
2017-05-05T04:59:16.712Z,99.90
2017-05-05T05:01:45.775Z,99.90
2017-05-05T05:04:14.064Z,99.90
2017-05-05T05:06:42.548Z,99.90
2017-05-05T05:09:10.871Z,99.90
2017-05-05T05:11:39.163Z,99.90
2017-05-05T05:14:07.451Z,99.90
2017-05-05T05:16:35.767Z,99.90
2017-05-05T05:19:04.061Z,99.90
2017-05-05T05:21:33.090Z,99.90
2017-05-05T05:24:01.427Z,99.90
2017-05-05T05:26:30.459Z,99.90
2017-05-05T05:28:58.748Z,99.90
2017-05-05T05:31:27.082Z,99.90
2017-05-05T05:33:56.114Z,99.90
2017-05-05T05:36:24.403Z,99.90
2017-05-05T05:38:52.735Z,99.90
2017-05-05T05:41:21.762Z,99.90
2017-05-05T05:43:50.055Z,99.90
2017-05-05T05:46:18.422Z,99.90
2017-05-05T05:48:46.710Z,99.90
2017-05-05T05:51:15.003Z,99.90
2017-05-05T05:53:43.329Z,99.90
2017-05-05T05:56:11.619Z,99.90
2017-05-05T05:58:39.912Z,99.90
2017-05-05T06:01:08.244Z,99.90
2017-05-05T06:03:37.271Z,99.90
2017-05-05T06:06:05.567Z,99.90
2017-05-05T06:08:33.904Z,99.90
2017-05-05T06:11:02.200Z,99.90
2017-05-05T06:13:30.482Z,99.90
2017-05-05T06:15:58.806Z,99.90
2017-05-05T06:18:27.095Z,99.90
2017-05-05T06:20:56.545Z,99.90
2017-05-05T06:23:24.902Z,99.90
2017-05-05T06:25:53.193Z,99.90
2017-05-05T06:28:21.482Z,99.90
2017-05-05T06:30:49.814Z,99.90
2017-05-05T06:33:18.851Z,99.90
2017-05-05T06:35:47.141Z,99.90
2017-05-05T06:38:15.472Z,99.90
2017-05-05T06:40:44.511Z,99.90
2017-05-05T06:43:12.811Z,99.90
2017-05-05T06:45:41.147Z,99.90
2017-05-05T06:48:09.438Z,99.90
2017-05-05T06:50:37.734Z,99.90
2017-05-05T06:53:06.071Z,99.80
2017-05-05T06:55:34.367Z,98.80
2017-05-05T06:58:02.658Z,98.50
2017-05-05T07:00:30.970Z,97.10
2017-05-05T07:02:59.264Z,97.00
2017-05-05T07:05:28.327Z,97.00
2017-05-05T07:07:56.623Z,96.10
2017-05-05T07:10:24.923Z,96.60
2017-05-05T07:12:53.246Z,95.40
2017-05-05T07:15:21.545Z,94.40
2017-05-05T07:17:49.838Z,94.10
2017-05-05T07:20:18.895Z,94.50
2017-05-05T07:22:47.189Z,94.60
2017-05-05T07:25:15.486Z,94.00
2017-05-05T07:27:44.539Z,94.10
2017-05-05T07:30:12.831Z,93.80
2017-05-05T07:32:41.158Z,93.50
2017-05-05T07:35:09.450Z,94.70
2017-05-05T07:37:37.743Z,93.40
2017-05-05T07:40:06.062Z,93.50
2017-05-05T07:42:34.351Z,94.40
2017-05-05T07:45:03.384Z,94.70
2017-05-05T07:47:31.699Z,92.70
2017-05-05T07:49:59.994Z,93.20
2017-05-05T07:52:29.031Z,93.30
2017-05-05T07:54:57.348Z,92.40
2017-05-05T07:57:25.642Z,93.20
2017-05-05T07:59:54.680Z,92.60
2017-05-05T08:02:23.001Z,92.40
2017-05-05T08:04:51.282Z,92.20
2017-05-05T08:07:19.574Z,91.60
2017-05-05T08:09:48.630Z,91.40
2017-05-05T08:12:16.930Z,90.90
2017-05-05T08:14:45.259Z,90.20
2017-05-05T08:17:13.557Z,90.50
2017-05-05T08:19:41.846Z,90.50
2017-05-05T08:22:10.162Z,90.10
2017-05-05T08:24:39.185Z,91.00
2017-05-05T08:27:07.502Z,90.30
2017-05-05T08:29:35.791Z,90.70
2017-05-05T08:32:04.165Z,91.50
2017-05-05T08:34:32.487Z,91.70
2017-05-05T08:37:00.779Z,91.30
2017-05-05T08:39:29.098Z,90.50
2017-05-05T08:41:57.387Z,90.90
2017-05-05T08:44:25.679Z,89.50
2017-05-05T08:46:54.727Z,88.70
2017-05-05T08:49:23.024Z,87.30
2017-05-05T08:51:51.358Z,88.90
2017-05-05T08:54:19.651Z,88.30
2017-05-05T08:56:47.952Z,89.30
2017-05-05T08:59:16.272Z,89.80
2017-05-05T09:01:44.566Z,88.60
2017-05-05T09:04:12.897Z,86.00
2017-05-05T09:06:41.195Z,82.90
2017-05-05T09:09:09.487Z,84.30
2017-05-05T09:11:37.798Z,84.40
2017-05-05T09:14:06.092Z,85.10
2017-05-05T09:16:34.415Z,83.40
2017-05-05T09:19:03.442Z,84.40
2017-05-05T09:21:31.732Z,84.90
2017-05-05T09:24:00.048Z,86.00
2017-05-05T09:26:29.086Z,87.80
2017-05-05T09:28:57.403Z,87.20
2017-05-05T09:31:25.694Z,86.80
2017-05-05T09:33:54.727Z,87.00
2017-05-05T09:36:23.034Z,89.50
2017-05-05T09:38:51.324Z,87.40
2017-05-05T09:41:19.682Z,83.30
2017-05-05T09:43:47.966Z,84.70
2017-05-05T09:46:16.256Z,86.10
2017-05-05T09:48:44.563Z,83.80
2017-05-05T09:51:13.662Z,83.70
2017-05-05T09:53:42.825Z,85.70
2017-05-05T09:56:11.115Z,83.80
2017-05-05T09:58:39.404Z,84.80
2017-05-05T10:01:08.460Z,84.90
2017-05-05T10:03:36.755Z,84.70
2017-05-05T10:06:05.100Z,86.00
2017-05-05T10:08:33.405Z,86.20
2017-05-05T10:11:01.699Z,86.20
2017-05-05T10:13:30.016Z,83.30
2017-05-05T10:15:58.303Z,85.50
2017-05-05T10:18:26.626Z,85.70
2017-05-05T10:20:54.930Z,84.40
2017-05-05T10:23:23.238Z,81.60
2017-05-05T10:25:51.557Z,78.80
2017-05-05T10:28:19.842Z,74.20
2017-05-05T10:30:48.144Z,73.70
2017-05-05T10:33:16.470Z,70.90
2017-05-05T10:35:44.787Z,69.30
2017-05-05T10:38:13.818Z,70.40
2017-05-05T10:40:42.138Z,67.90
2017-05-05T10:43:10.430Z,65.70
2017-05-05T10:45:38.726Z,62.00
2017-05-05T10:48:07.790Z,61.60
2017-05-05T10:50:36.082Z,57.50
2017-05-05T10:53:04.379Z,57.70
2017-05-05T10:55:33.436Z,57.30
2017-05-05T10:58:01.732Z,55.80
2017-05-05T11:00:30.027Z,59.30
2017-05-05T11:02:59.101Z,56.70
2017-05-05T11:05:27.393Z,58.90
2017-05-05T11:07:56.431Z,56.50
2017-05-05T11:10:24.756Z,56.00
2017-05-05T11:12:53.046Z,57.90
2017-05-05T11:15:22.078Z,63.60
2017-05-05T11:17:50.394Z,57.30
2017-05-05T11:20:18.683Z,55.50
2017-05-05T11:22:47.722Z,53.00
2017-05-05T11:25:16.042Z,54.10
2017-05-05T11:27:44.335Z,52.20
2017-05-05T11:30:13.368Z,57.30
2017-05-05T11:32:41.686Z,55.40
2017-05-05T11:35:09.975Z,57.10
2017-05-05T11:37:38.263Z,59.90
2017-05-05T11:40:07.330Z,60.90
2017-05-05T11:42:35.625Z,64.30
2017-05-05T11:45:03.920Z,69.40
2017-05-05T11:47:32.990Z,65.10
2017-05-05T11:50:01.279Z,64.90
2017-05-05T11:52:29.570Z,67.10
2017-05-05T11:54:58.627Z,68.60
2017-05-05T11:57:26.912Z,68.10
2017-05-05T11:59:58.669Z,69.40
2017-05-05T12:02:27.175Z,70.60
2017-05-05T12:04:56.218Z,70.60
2017-05-05T12:07:25.468Z,71.10
2017-05-05T12:09:53.873Z,69.60
2017-05-05T12:12:22.161Z,71.90
2017-05-05T12:14:50.454Z,72.10
2017-05-05T12:17:18.771Z,73.00
2017-05-05T12:19:47.063Z,72.50
2017-05-05T12:22:15.355Z,73.00
2017-05-05T12:24:44.431Z,72.60
2017-05-05T12:27:12.723Z,72.10
2017-05-05T12:29:41.761Z,73.20
2017-05-05T12:32:10.075Z,75.90
2017-05-05T12:34:38.366Z,76.40
2017-05-05T12:37:07.396Z,75.50
2017-05-05T12:39:35.725Z,75.20
2017-05-05T12:42:04.025Z,73.10
2017-05-05T12:44:33.055Z,74.60
2017-05-05T12:47:01.383Z,74.40
2017-05-05T12:49:29.675Z,76.20
2017-05-05T12:51:58.702Z,74.70
2017-05-05T12:54:27.030Z,72.00
2017-05-05T12:56:55.327Z,71.20
2017-05-05T12:59:24.354Z,74.90
2017-05-05T13:01:52.680Z,75.60
2017-05-05T13:04:20.967Z,77.20
2017-05-05T13:06:49.259Z,77.40
2017-05-05T13:09:17.586Z,75.20
2017-05-05T13:11:45.880Z,72.80
2017-05-05T13:14:14.176Z,70.20
2017-05-05T13:16:43.246Z,69.40
2017-05-05T13:19:11.535Z,70.40
2017-05-05T13:21:39.827Z,74.10
2017-05-05T13:24:08.880Z,70.80
2017-05-05T13:26:37.172Z,69.40
2017-05-05T13:29:05.863Z,67.80
2017-05-05T13:31:34.186Z,67.10
2017-05-05T13:34:02.474Z,68.10
2017-05-05T13:36:30.759Z,70.50
2017-05-05T13:38:59.080Z,69.90
2017-05-05T13:41:27.372Z,68.30
2017-05-05T13:43:56.402Z,70.60
2017-05-05T13:46:24.728Z,69.10
2017-05-05T13:48:53.019Z,68.20
2017-05-05T13:51:21.307Z,68.40
2017-05-05T13:53:50.370Z,68.60
2017-05-05T13:56:18.655Z,71.40
2017-05-05T13:58:46.947Z,68.10
2017-05-05T14:01:15.276Z,70.20
2017-05-05T14:03:44.307Z,70.80
2017-05-05T14:06:12.601Z,72.50
2017-05-05T14:08:40.919Z,71.50
2017-05-05T14:11:09.954Z,70.90
2017-05-05T14:13:38.247Z,72.80
2017-05-05T14:16:06.558Z,71.30
2017-05-05T14:18:34.846Z,73.40
2017-05-05T14:21:03.875Z,72.60
2017-05-05T14:23:32.200Z,72.00
2017-05-05T14:26:00.490Z,73.20
2017-05-05T14:28:29.522Z,72.70
2017-05-05T14:30:57.831Z,73.00
2017-05-05T14:33:26.131Z,73.20
2017-05-05T14:35:54.442Z,75.00
2017-05-05T14:38:22.741Z,74.90
2017-05-05T14:40:51.073Z,76.70
2017-05-05T14:43:19.371Z,76.40
2017-05-05T14:45:48.394Z,79.60
2017-05-05T14:48:16.718Z,77.10
2017-05-05T14:50:45.058Z,76.50
2017-05-05T14:53:13.347Z,77.30
2017-05-05T14:55:41.662Z,78.80
2017-05-05T14:58:10.695Z,78.10
2017-05-05T15:00:38.984Z,81.20
2017-05-05T15:03:07.301Z,85.20
2017-05-05T15:05:35.593Z,84.60
2017-05-05T15:08:04.620Z,82.20
2017-05-05T15:10:32.947Z,83.40
2017-05-05T15:13:01.238Z,83.40
2017-05-05T15:15:30.267Z,85.00
2017-05-05T15:17:58.591Z,83.30
2017-05-05T15:20:26.884Z,84.50
2017-05-05T15:22:55.918Z,84.00
2017-05-05T15:25:24.237Z,83.50
2017-05-05T15:27:52.526Z,84.60
2017-05-05T15:30:21.559Z,86.40
2017-05-05T15:32:49.871Z,88.90
2017-05-05T15:35:18.165Z,88.10
2017-05-05T15:37:46.455Z,87.40
2017-05-05T15:40:15.515Z,86.40
2017-05-05T15:42:43.802Z,87.70
2017-05-05T15:45:12.095Z,89.60
2017-05-05T15:47:40.411Z,89.60
2017-05-05T15:50:08.699Z,88.70
2017-05-05T15:52:36.990Z,88.20
2017-05-05T15:55:05.328Z,88.40
2017-05-05T15:57:34.362Z,89.50
2017-05-05T16:00:02.690Z,88.40
2017-05-05T16:02:31.770Z,89.60
2017-05-05T16:05:00.058Z,89.60
2017-05-05T16:07:29.087Z,88.70
2017-05-05T16:09:57.407Z,87.90
2017-05-05T16:12:26.438Z,89.60
2017-05-05T16:14:54.729Z,90.40
2017-05-05T16:17:23.055Z,90.80
2017-05-05T16:19:52.082Z,88.20
2017-05-05T16:22:20.372Z,90.40
2017-05-05T16:24:48.701Z,91.90
2017-05-05T16:27:17.726Z,90.10
2017-05-05T16:29:46.015Z,90.10
2017-05-05T16:32:14.303Z,89.90
2017-05-05T16:34:42.595Z,90.70
2017-05-05T16:37:10.887Z,90.50
2017-05-05T16:39:39.182Z,91.20
2017-05-05T16:42:07.470Z,90.80
2017-05-05T16:44:36.504Z,90.70
2017-05-05T16:47:05.539Z,91.80
2017-05-05T16:49:33.832Z,90.80
2017-05-05T16:52:02.126Z,91.50
2017-05-05T16:54:30.420Z,91.90
2017-05-05T16:56:59.456Z,92.10
2017-05-05T16:59:27.739Z,91.50
2017-05-05T17:01:56.032Z,91.90
2017-05-05T17:04:24.326Z,92.00
2017-05-05T17:06:52.623Z,91.70
2017-05-05T17:09:20.921Z,92.70
2017-05-05T17:11:49.951Z,92.00
2017-05-05T17:14:18.287Z,93.00
2017-05-05T17:16:47.320Z,93.20
2017-05-05T17:19:15.612Z,93.60
2017-05-05T17:21:43.898Z,93.60
2017-05-05T17:24:12.188Z,92.40
2017-05-05T17:26:40.508Z,93.30
2017-05-05T17:29:08.800Z,93.50
2017-05-05T17:31:37.092Z,93.20
2017-05-05T17:34:05.379Z,94.00
2017-05-05T17:36:33.667Z,94.40
2017-05-05T17:39:01.952Z,94.30
2017-05-05T17:41:30.245Z,94.70
2017-05-05T17:43:58.540Z,94.90
2017-05-05T17:46:26.831Z,94.90
2017-05-05T17:48:55.123Z,95.30
2017-05-05T17:51:23.414Z,95.50
2017-05-05T17:53:51.706Z,96.00
2017-05-05T17:56:20.006Z,96.70
2017-05-05T17:58:49.067Z,96.10
2017-05-05T18:01:17.364Z,96.50
2017-05-05T18:03:46.400Z,96.90
2017-05-05T18:06:14.691Z,97.20
2017-05-05T18:08:42.978Z,97.60
2017-05-05T18:11:11.271Z,97.80
2017-05-05T18:13:39.571Z,95.90
2017-05-05T18:16:08.602Z,96.20
2017-05-05T18:18:36.889Z,96.80
2017-05-05T18:21:05.179Z,96.20
2017-05-05T18:23:33.475Z,96.20
2017-05-05T18:26:01.770Z,96.20
2017-05-05T18:28:30.803Z,97.20
2017-05-05T18:30:59.087Z,96.80
2017-05-05T18:33:27.381Z,97.40
2017-05-05T18:35:55.671Z,97.50
2017-05-05T18:38:23.958Z,97.70
2017-05-05T18:40:52.284Z,98.20
2017-05-05T18:43:20.581Z,98.20
2017-05-05T18:45:48.866Z,98.30
2017-05-05T18:48:17.157Z,98.60
2017-05-05T18:50:45.450Z,98.60
2017-05-05T18:53:14.480Z,99.10
2017-05-05T18:55:42.771Z,99.10
2017-05-05T18:58:11.063Z,99.30
2017-05-05T19:00:39.386Z,99.60
2017-05-05T19:03:08.446Z,99.80
2017-05-05T19:05:36.734Z,99.80
2017-05-05T19:08:05.022Z,99.70
2017-05-05T19:10:34.059Z,99.90
2017-05-05T19:13:02.351Z,99.90
2017-05-05T19:15:30.644Z,99.90
2017-05-05T19:17:58.936Z,99.90
2017-05-05T19:20:27.228Z,99.90
2017-05-05T19:22:55.520Z,99.90
2017-05-05T19:25:23.811Z,99.90
2017-05-05T19:27:52.105Z,99.90
2017-05-05T19:30:21.139Z,99.90
2017-05-05T19:32:49.431Z,99.90
2017-05-05T19:35:17.726Z,99.90
2017-05-05T19:37:46.019Z,99.90
2017-05-05T19:40:14.311Z,99.90
2017-05-05T19:42:42.605Z,99.90
2017-05-05T19:45:10.925Z,99.90
2017-05-05T19:47:39.219Z,99.90
2017-05-05T19:50:07.508Z,99.90
2017-05-05T19:52:35.800Z,99.90
2017-05-05T19:55:04.089Z,99.90
2017-05-05T19:57:32.379Z,99.90
2017-05-05T20:00:00.663Z,99.90
2017-05-05T20:02:28.955Z,99.90
2017-05-05T20:04:57.247Z,99.90
2017-05-05T20:07:25.577Z,99.90
2017-05-05T20:09:53.867Z,99.90
2017-05-05T20:12:22.159Z,99.90
2017-05-05T20:14:50.450Z,99.90
2017-05-05T20:17:18.738Z,99.90
2017-05-05T20:19:47.030Z,99.90
2017-05-05T20:22:15.319Z,99.90
2017-05-05T20:24:43.611Z,99.90
2017-05-05T20:27:11.906Z,99.90
2017-05-05T20:29:40.194Z,99.90
2017-05-05T20:32:08.478Z,99.90
2017-05-05T20:34:36.767Z,99.90
2017-05-05T20:37:05.064Z,99.90
2017-05-05T20:39:34.122Z,99.90
2017-05-05T20:42:02.406Z,99.90
2017-05-05T20:44:30.694Z,99.90
2017-05-05T20:46:59.002Z,99.90
2017-05-05T20:49:27.300Z,99.90
2017-05-05T20:51:55.623Z,99.90
2017-05-05T20:54:23.915Z,99.90
2017-05-05T20:56:52.945Z,99.90
2017-05-05T20:59:21.260Z,99.90
2017-05-05T21:01:49.550Z,99.90
2017-05-05T21:04:17.843Z,99.90
2017-05-05T21:06:46.911Z,99.90
2017-05-05T21:09:15.199Z,99.90
2017-05-05T21:11:43.483Z,99.90
2017-05-05T21:14:11.797Z,99.90
2017-05-05T21:16:40.087Z,99.90
2017-05-05T21:19:08.379Z,99.90
2017-05-05T21:21:36.697Z,99.90
2017-05-05T21:24:05.728Z,99.90
2017-05-05T21:26:34.023Z,99.90
2017-05-05T21:29:02.330Z,99.90
2017-05-05T21:31:30.620Z,99.90
2017-05-05T21:33:58.935Z,99.90
2017-05-05T21:36:27.223Z,99.90
2017-05-05T21:38:55.510Z,99.90
2017-05-05T21:41:23.840Z,99.90
2017-05-05T21:43:52.870Z,99.90
2017-05-05T21:46:21.158Z,99.90
2017-05-05T21:48:49.478Z,99.90
2017-05-05T21:51:17.768Z,99.90
2017-05-05T21:53:46.803Z,99.90
2017-05-05T21:56:15.411Z,99.90
2017-05-05T21:58:43.699Z,99.90
2017-05-05T22:01:11.991Z,99.90
2017-05-05T22:03:40.315Z,99.90
2017-05-05T22:06:08.607Z,99.90
2017-05-05T22:08:36.898Z,99.90
2017-05-05T22:11:05.211Z,99.90
2017-05-05T22:13:34.245Z,99.90
2017-05-05T22:16:02.535Z,99.90
2017-05-05T22:18:30.861Z,99.90
2017-05-05T22:20:59.891Z,99.90
2017-05-05T22:23:28.197Z,99.90
2017-05-05T22:25:56.530Z,99.90
2017-05-05T22:28:24.820Z,99.90
2017-05-05T22:30:53.137Z,99.90
2017-05-05T22:33:21.462Z,99.90
2017-05-05T22:35:49.769Z,99.90
2017-05-05T22:38:18.083Z,99.90
2017-05-05T22:40:46.417Z,99.90
2017-05-05T22:43:14.724Z,99.90
2017-05-05T22:45:43.046Z,99.90
2017-05-05T22:48:11.406Z,99.90
2017-05-05T22:50:40.435Z,99.90
2017-05-05T22:53:08.737Z,99.90
2017-05-05T22:55:37.083Z,99.90
2017-05-05T22:58:05.383Z,99.90
2017-05-05T23:00:33.686Z,99.90
2017-05-05T23:03:02.037Z,99.90
2017-05-05T23:05:30.354Z,99.90
2017-05-05T23:07:58.649Z,99.90
2017-05-05T23:10:27.741Z,99.90
2017-05-05T23:12:56.823Z,99.90
2017-05-05T23:15:25.137Z,99.90
2017-05-05T23:17:53.494Z,99.90
2017-05-05T23:20:22.550Z,99.90
2017-05-05T23:22:50.867Z,99.90
2017-05-05T23:25:19.971Z,99.90
2017-05-05T23:27:49.022Z,99.90
2017-05-05T23:30:17.319Z,99.90
2017-05-05T23:32:45.670Z,99.90
2017-05-05T23:35:13.977Z,99.90
2017-05-05T23:37:42.274Z,99.90
2017-05-05T23:40:10.622Z,99.90
2017-05-05T23:42:38.923Z,99.90
2017-05-05T23:45:07.235Z,99.90
2017-05-05T23:47:35.593Z,99.90
2017-05-05T23:50:03.895Z,99.90
2017-05-05T23:52:32.187Z,99.90
2017-05-05T23:55:01.266Z,99.90
2017-05-05T23:57:29.559Z,99.90
2017-05-05T23:59:58.609Z,99.90
